sensor_id;sensor_type;location;lat;lon;timestamp;P1;durP1;ratioP1;P2;durP2;ratioP2
40012;SDS011;37387;42.672;23.334;2023-05-07T00:00:41;18.7;;;10.5;;
40012;SDS011;37387;42.672;23.334;2023-05-07T00:01:41;19.4;;;11.4;;
40012;SDS011;37387;42.672;23.334;2023-05-07T00:02:41;20.1;;;10.7;;
40012;SDS011;37387;42.672;23.334;2023-05-07T00:03:41;16.5;;;10.5;;
40012;SDS011;37387;42.672;23.334;2023-05-07T00:04:41;16.5;;;10.7;;
40012;SDS011;37387;42.672;23.334;2023-05-07T00:05:41;23.5;;;10.3;;
40012;SDS011;37387;42.672;23.334;2023-05-07T00:06:41;17.1;;;10.2;;
40012;SDS011;37387;42.672;23.334;2023-05-07T00:07:41;18.3;;;10.8;;
40012;SDS011;37387;42.672;23.334;2023-05-07T00:09:41;18.4;;;11.0;;
40012;SDS011;37387;42.672;23.334;2023-05-07T00:11:41;19.3;;;10.3;;
40012;SDS011;37387;42.672;23.334;2023-05-07T00:12:41;19.3;;;10.6;;
40012;SDS011;37387;42.672;23.334;2023-05-07T00:13:41;18.6;;;10.4;;
40012;SDS011;37387;42.672;23.334;2023-05-07T00:14:41;18.1;;;10.8;;
40012;SDS011;37387;42.672;23.334;2023-05-07T00:15:41;20.1;;;10.7;;
40012;SDS011;37387;42.672;23.334;2023-05-07T00:16:41;18.7;;;10.2;;
40012;SDS011;37387;42.672;23.334;2023-05-07T00:17:41;19.2;;;10.9;;
40012;SDS011;37387;42.672;23.334;2023-05-07T00:18:41;19.2;;;10.8;;
40012;SDS011;37387;42.672;23.334;2023-05-07T00:19:41;18.2;;;10.4;;
40012;SDS011;37387;42.672;23.334;2023-05-07T00:20:41;21.1;;;11.8;;
40012;SDS011;37387;42.672;23.334;2023-05-07T00:21:41;21.1;;;11.1;;
40012;SDS011;37387;42.672;23.334;2023-05-07T00:22:41;18.2;;;11.2;;
40012;SDS011;37387;42.672;23.334;2023-05-07T00:23:41;18.2;;;10.9;;
40012;SDS011;37387;42.672;23.334;2023-05-07T00:24:41;20.2;;;11.0;;
40012;SDS011;37387;42.672;23.334;2023-05-07T00:25:41;18.5;;;11.5;;
40012;SDS011;37387;42.672;23.334;2023-05-07T00:26:40;18.5;;;11.0;;
40012;SDS011;37387;42.672;23.334;2023-05-07T00:27:40;21.2;;;11.4;;
40012;SDS011;37387;42.672;23.334;2023-05-07T00:28:40;18.6;;;11.3;;
40012;SDS011;37387;42.672;23.334;2023-05-07T00:29:40;19.7;;;10.8;;
40012;SDS011;37387;42.672;23.334;2023-05-07T00:30:40;22.8;;;11.6;;
40012;SDS011;37387;42.672;23.334;2023-05-07T00:31:40;22.8;;;10.6;;
40012;SDS011;37387;42.672;23.334;2023-05-07T00:32:40;20.5;;;11.3;;
40012;SDS011;37387;42.672;23.334;2023-05-07T00:33:40;19.7;;;11.5;;
40012;SDS011;37387;42.672;23.334;2023-05-07T00:34:40;19.7;;;11.9;;
40012;SDS011;37387;42.672;23.334;2023-05-07T00:35:41;21.3;;;11.2;;
40012;SDS011;37387;42.672;23.334;2023-05-07T00:36:40;20.3;;;10.7;;
40012;SDS011;37387;42.672;23.334;2023-05-07T00:37:40;21.9;;;11.0;;
40012;SDS011;37387;42.672;23.334;2023-05-07T00:38:40;22.3;;;11.2;;
40012;SDS011;37387;42.672;23.334;2023-05-07T00:39:40;21.3;;;12.2;;
40012;SDS011;37387;42.672;23.334;2023-05-07T00:40:40;21.8;;;11.9;;
40012;SDS011;37387;42.672;23.334;2023-05-07T00:41:40;21.5;;;11.5;;
40012;SDS011;37387;42.672;23.334;2023-05-07T00:43:40;21.4;;;11.2;;
40012;SDS011;37387;42.672;23.334;2023-05-07T00:44:40;21.4;;;11.7;;
40012;SDS011;37387;42.672;23.334;2023-05-07T00:45:40;22.4;;;11.5;;
40012;SDS011;37387;42.672;23.334;2023-05-07T00:46:40;19.1;;;11.6;;
40012;SDS011;37387;42.672;23.334;2023-05-07T00:47:40;19.1;;;11.5;;
40012;SDS011;37387;42.672;23.334;2023-05-07T00:48:40;22.2;;;11.4;;
40012;SDS011;37387;42.672;23.334;2023-05-07T00:49:41;21.7;;;11.1;;
40012;SDS011;37387;42.672;23.334;2023-05-07T00:50:40;21.7;;;11.5;;
40012;SDS011;37387;42.672;23.334;2023-05-07T00:51:40;21.0;;;12.1;;
40012;SDS011;37387;42.672;23.334;2023-05-07T00:52:40;20.1;;;11.4;;
40012;SDS011;37387;42.672;23.334;2023-05-07T00:53:40;20.1;;;11.8;;
40012;SDS011;37387;42.672;23.334;2023-05-07T00:54:40;22.9;;;10.4;;
40012;SDS011;37387;42.672;23.334;2023-05-07T00:55:40;19.6;;;11.4;;
40012;SDS011;37387;42.672;23.334;2023-05-07T00:57:40;17.7;;;10.9;;
40012;SDS011;37387;42.672;23.334;2023-05-07T00:58:40;17.7;;;11.0;;
40012;SDS011;37387;42.672;23.334;2023-05-07T00:59:40;24.5;;;11.2;;
40012;SDS011;37387;42.672;23.334;2023-05-07T01:00:40;19.3;;;11.0;;
40012;SDS011;37387;42.672;23.334;2023-05-07T01:01:39;19.3;;;10.3;;
40012;SDS011;37387;42.672;23.334;2023-05-07T01:02:40;18.7;;;11.1;;
40012;SDS011;37387;42.672;23.334;2023-05-07T01:03:39;17.2;;;11.9;;
40012;SDS011;37387;42.672;23.334;2023-05-07T01:04:39;22.2;;;11.4;;
40012;SDS011;37387;42.672;23.334;2023-05-07T01:05:39;23.7;;;12.3;;
40012;SDS011;37387;42.672;23.334;2023-05-07T01:06:39;23.7;;;11.0;;
40012;SDS011;37387;42.672;23.334;2023-05-07T01:07:40;22.9;;;11.5;;
40012;SDS011;37387;42.672;23.334;2023-05-07T01:08:39;17.9;;;10.2;;
40012;SDS011;37387;42.672;23.334;2023-05-07T01:09:39;17.9;;;10.5;;
40012;SDS011;37387;42.672;23.334;2023-05-07T01:10:39;17.9;;;10.4;;
40012;SDS011;37387;42.672;23.334;2023-05-07T01:11:39;19.2;;;11.1;;
40012;SDS011;37387;42.672;23.334;2023-05-07T01:12:39;19.1;;;10.6;;
40012;SDS011;37387;42.672;23.334;2023-05-07T01:13:39;19.1;;;10.7;;
40012;SDS011;37387;42.672;23.334;2023-05-07T01:14:39;19.5;;;10.3;;
40012;SDS011;37387;42.672;23.334;2023-05-07T01:15:39;19.5;;;10.5;;
40012;SDS011;37387;42.672;23.334;2023-05-07T01:16:39;19.8;;;10.2;;
40012;SDS011;37387;42.672;23.334;2023-05-07T01:17:39;16.2;;;9.8;;
40012;SDS011;37387;42.672;23.334;2023-05-07T01:19:39;16.6;;;10.6;;
40012;SDS011;37387;42.672;23.334;2023-05-07T01:20:39;20.5;;;9.6;;
40012;SDS011;37387;42.672;23.334;2023-05-07T01:21:39;18.2;;;9.5;;
40012;SDS011;37387;42.672;23.334;2023-05-07T01:22:39;18.2;;;8.4;;
40012;SDS011;37387;42.672;23.334;2023-05-07T01:23:39;15.8;;;8.9;;
40012;SDS011;37387;42.672;23.334;2023-05-07T01:24:39;13.3;;;8.5;;
40012;SDS011;37387;42.672;23.334;2023-05-07T01:25:39;14.4;;;9.0;;
40012;SDS011;37387;42.672;23.334;2023-05-07T01:26:39;15.8;;;7.6;;
40012;SDS011;37387;42.672;23.334;2023-05-07T01:27:39;13.8;;;7.9;;
40012;SDS011;37387;42.672;23.334;2023-05-07T01:28:39;13.8;;;7.5;;
40012;SDS011;37387;42.672;23.334;2023-05-07T01:29:39;14.2;;;8.1;;
40012;SDS011;37387;42.672;23.334;2023-05-07T01:30:39;11.2;;;7.4;;
40012;SDS011;37387;42.672;23.334;2023-05-07T01:31:39;13.0;;;7.1;;
40012;SDS011;37387;42.672;23.334;2023-05-07T01:32:40;13.0;;;6.5;;
40012;SDS011;37387;42.672;23.334;2023-05-07T01:33:38;9.9;;;6.9;;
40012;SDS011;37387;42.672;23.334;2023-05-07T01:34:38;11.3;;;6.3;;
40012;SDS011;37387;42.672;23.334;2023-05-07T01:35:40;11.7;;;6.6;;
40012;SDS011;37387;42.672;23.334;2023-05-07T01:36:38;8.5;;;5.5;;
40012;SDS011;37387;42.672;23.334;2023-05-07T01:37:38;9.6;;;6.0;;
40012;SDS011;37387;42.672;23.334;2023-05-07T01:38:38;9.6;;;5.8;;
40012;SDS011;37387;42.672;23.334;2023-05-07T01:39:38;9.7;;;5.9;;
40012;SDS011;37387;42.672;23.334;2023-05-07T01:40:38;9.4;;;5.7;;
40012;SDS011;37387;42.672;23.334;2023-05-07T01:41:38;9.4;;;5.3;;
40012;SDS011;37387;42.672;23.334;2023-05-07T01:42:38;9.8;;;6.2;;
40012;SDS011;37387;42.672;23.334;2023-05-07T01:43:38;9.8;;;5.3;;
40012;SDS011;37387;42.672;23.334;2023-05-07T01:44:38;8.6;;;5.1;;
40012;SDS011;37387;42.672;23.334;2023-05-07T01:45:38;7.2;;;4.8;;
40012;SDS011;37387;42.672;23.334;2023-05-07T01:46:38;7.2;;;4.9;;
40012;SDS011;37387;42.672;23.334;2023-05-07T01:47:38;8.5;;;4.5;;
40012;SDS011;37387;42.672;23.334;2023-05-07T01:48:38;7.9;;;5.1;;
40012;SDS011;37387;42.672;23.334;2023-05-07T01:49:38;12.9;;;5.2;;
40012;SDS011;37387;42.672;23.334;2023-05-07T01:50:38;6.9;;;4.8;;
40012;SDS011;37387;42.672;23.334;2023-05-07T01:51:38;6.9;;;4.6;;
40012;SDS011;37387;42.672;23.334;2023-05-07T01:52:38;7.7;;;4.9;;
40012;SDS011;37387;42.672;23.334;2023-05-07T01:53:38;6.9;;;4.4;;
40012;SDS011;37387;42.672;23.334;2023-05-07T01:54:38;7.3;;;4.5;;
40012;SDS011;37387;42.672;23.334;2023-05-07T01:55:38;8.6;;;4.4;;
40012;SDS011;37387;42.672;23.334;2023-05-07T01:56:38;8.4;;;4.6;;
40012;SDS011;37387;42.672;23.334;2023-05-07T01:57:38;7.3;;;4.8;;
40012;SDS011;37387;42.672;23.334;2023-05-07T01:58:38;6.8;;;4.7;;
40012;SDS011;37387;42.672;23.334;2023-05-07T01:59:38;6.8;;;4.3;;
40012;SDS011;37387;42.672;23.334;2023-05-07T02:01:38;7.1;;;4.5;;
40012;SDS011;37387;42.672;23.334;2023-05-07T02:02:38;8.7;;;5.0;;
40012;SDS011;37387;42.672;23.334;2023-05-07T02:04:38;10.1;;;4.6;;
40012;SDS011;37387;42.672;23.334;2023-05-07T02:05:38;6.9;;;5.1;;
40012;SDS011;37387;42.672;23.334;2023-05-07T02:07:38;8.4;;;4.7;;
40012;SDS011;37387;42.672;23.334;2023-05-07T02:08:38;8.0;;;5.3;;
40012;SDS011;37387;42.672;23.334;2023-05-07T02:09:37;8.0;;;5.0;;
40012;SDS011;37387;42.672;23.334;2023-05-07T02:10:38;9.2;;;5.1;;
40012;SDS011;37387;42.672;23.334;2023-05-07T02:11:37;7.6;;;5.2;;
40012;SDS011;37387;42.672;23.334;2023-05-07T02:12:37;8.9;;;5.3;;
40012;SDS011;37387;42.672;23.334;2023-05-07T02:13:37;10.1;;;4.9;;
40012;SDS011;37387;42.672;23.334;2023-05-07T02:14:37;8.7;;;5.2;;
40012;SDS011;37387;42.672;23.334;2023-05-07T02:15:37;8.1;;;5.5;;
40012;SDS011;37387;42.672;23.334;2023-05-07T02:16:37;10.5;;;6.1;;
40012;SDS011;37387;42.672;23.334;2023-05-07T02:17:39;10.5;;;4.7;;
40012;SDS011;37387;42.672;23.334;2023-05-07T02:18:37;8.0;;;6.1;;
40012;SDS011;37387;42.672;23.334;2023-05-07T02:19:37;8.5;;;6.2;;
40012;SDS011;37387;42.672;23.334;2023-05-07T02:20:37;9.1;;;5.2;;
40012;SDS011;37387;42.672;23.334;2023-05-07T02:21:37;9.1;;;5.7;;
40012;SDS011;37387;42.672;23.334;2023-05-07T02:22:37;8.6;;;5.4;;
40012;SDS011;37387;42.672;23.334;2023-05-07T02:23:37;8.3;;;5.7;;
40012;SDS011;37387;42.672;23.334;2023-05-07T02:24:37;9.0;;;5.6;;
40012;SDS011;37387;42.672;23.334;2023-05-07T02:25:37;8.5;;;5.4;;
40012;SDS011;37387;42.672;23.334;2023-05-07T02:26:37;9.3;;;5.7;;
40012;SDS011;37387;42.672;23.334;2023-05-07T02:27:37;12.5;;;6.1;;
40012;SDS011;37387;42.672;23.334;2023-05-07T02:28:37;12.5;;;5.8;;
40012;SDS011;37387;42.672;23.334;2023-05-07T02:29:37;10.8;;;6.3;;
40012;SDS011;37387;42.672;23.334;2023-05-07T02:30:37;10.8;;;6.8;;
40012;SDS011;37387;42.672;23.334;2023-05-07T02:31:37;10.7;;;5.8;;
40012;SDS011;37387;42.672;23.334;2023-05-07T02:32:37;7.0;;;5.4;;
40012;SDS011;37387;42.672;23.334;2023-05-07T02:33:37;8.4;;;6.0;;
40012;SDS011;37387;42.672;23.334;2023-05-07T02:35:37;8.5;;;5.7;;
40012;SDS011;37387;42.672;23.334;2023-05-07T02:36:37;8.5;;;5.8;;
40012;SDS011;37387;42.672;23.334;2023-05-07T02:37:37;11.5;;;6.5;;
40012;SDS011;37387;42.672;23.334;2023-05-07T02:38:37;10.8;;;6.6;;
40012;SDS011;37387;42.672;23.334;2023-05-07T02:39:37;10.8;;;5.5;;
40012;SDS011;37387;42.672;23.334;2023-05-07T02:40:37;8.6;;;6.2;;
40012;SDS011;37387;42.672;23.334;2023-05-07T02:41:37;9.0;;;5.9;;
40012;SDS011;37387;42.672;23.334;2023-05-07T02:42:37;9.0;;;4.8;;
40012;SDS011;37387;42.672;23.334;2023-05-07T02:43:37;9.1;;;5.7;;
40012;SDS011;37387;42.672;23.334;2023-05-07T02:44:37;9.1;;;6.1;;
40012;SDS011;37387;42.672;23.334;2023-05-07T02:45:37;8.6;;;6.0;;
40012;SDS011;37387;42.672;23.334;2023-05-07T02:46:37;8.3;;;5.6;;
40012;SDS011;37387;42.672;23.334;2023-05-07T02:47:37;11.2;;;6.5;;
40012;SDS011;37387;42.672;23.334;2023-05-07T02:48:37;8.7;;;5.7;;
40012;SDS011;37387;42.672;23.334;2023-05-07T02:49:37;11.2;;;5.9;;
40012;SDS011;37387;42.672;23.334;2023-05-07T02:50:37;8.1;;;5.8;;
40012;SDS011;37387;42.672;23.334;2023-05-07T02:51:37;8.1;;;6.0;;
40012;SDS011;37387;42.672;23.334;2023-05-07T02:52:37;10.3;;;6.1;;
40012;SDS011;37387;42.672;23.334;2023-05-07T02:53:37;10.3;;;5.5;;
40012;SDS011;37387;42.672;23.334;2023-05-07T02:54:37;9.0;;;6.0;;
40012;SDS011;37387;42.672;23.334;2023-05-07T02:55:36;8.5;;;6.1;;
40012;SDS011;37387;42.672;23.334;2023-05-07T02:56:36;8.9;;;5.5;;
40012;SDS011;37387;42.672;23.334;2023-05-07T02:57:36;8.9;;;6.5;;
40012;SDS011;37387;42.672;23.334;2023-05-07T02:58:36;12.1;;;6.8;;
40012;SDS011;37387;42.672;23.334;2023-05-07T02:59:36;10.0;;;6.0;;
40012;SDS011;37387;42.672;23.334;2023-05-07T03:00:36;12.2;;;6.9;;
40012;SDS011;37387;42.672;23.334;2023-05-07T03:01:36;12.2;;;6.6;;
40012;SDS011;37387;42.672;23.334;2023-05-07T03:02:36;9.0;;;6.0;;
40012;SDS011;37387;42.672;23.334;2023-05-07T03:03:36;13.5;;;6.7;;
40012;SDS011;37387;42.672;23.334;2023-05-07T03:04:36;11.1;;;6.2;;
40012;SDS011;37387;42.672;23.334;2023-05-07T03:05:36;13.9;;;6.7;;
40012;SDS011;37387;42.672;23.334;2023-05-07T03:06:36;10.2;;;6.4;;
40012;SDS011;37387;42.672;23.334;2023-05-07T03:07:36;10.2;;;6.9;;
40012;SDS011;37387;42.672;23.334;2023-05-07T03:09:36;13.2;;;7.1;;
40012;SDS011;37387;42.672;23.334;2023-05-07T03:10:36;10.5;;;6.9;;
40012;SDS011;37387;42.672;23.334;2023-05-07T03:12:37;12.4;;;7.3;;
40012;SDS011;37387;42.672;23.334;2023-05-07T03:13:36;10.8;;;6.8;;
40012;SDS011;37387;42.672;23.334;2023-05-07T03:14:36;11.8;;;7.0;;
40012;SDS011;37387;42.672;23.334;2023-05-07T03:16:36;12.6;;;6.5;;
40012;SDS011;37387;42.672;23.334;2023-05-07T03:17:36;9.8;;;6.8;;
40012;SDS011;37387;42.672;23.334;2023-05-07T03:18:36;10.1;;;6.0;;
40012;SDS011;37387;42.672;23.334;2023-05-07T03:19:36;10.7;;;7.0;;
40012;SDS011;37387;42.672;23.334;2023-05-07T03:20:36;11.8;;;7.2;;
40012;SDS011;37387;42.672;23.334;2023-05-07T03:21:36;12.8;;;7.7;;
40012;SDS011;37387;42.672;23.334;2023-05-07T03:22:36;12.5;;;8.0;;
40012;SDS011;37387;42.672;23.334;2023-05-07T03:23:36;11.4;;;7.0;;
40012;SDS011;37387;42.672;23.334;2023-05-07T03:24:36;11.4;;;7.5;;
40012;SDS011;37387;42.672;23.334;2023-05-07T03:26:36;12.2;;;7.1;;
40012;SDS011;37387;42.672;23.334;2023-05-07T03:27:36;12.2;;;7.4;;
40012;SDS011;37387;42.672;23.334;2023-05-07T03:28:36;11.6;;;7.5;;
40012;SDS011;37387;42.672;23.334;2023-05-07T03:29:36;14.0;;;8.0;;
40012;SDS011;37387;42.672;23.334;2023-05-07T03:30:36;12.1;;;7.8;;
40012;SDS011;37387;42.672;23.334;2023-05-07T03:31:36;9.8;;;7.4;;
40012;SDS011;37387;42.672;23.334;2023-05-07T03:32:36;9.8;;;7.0;;
40012;SDS011;37387;42.672;23.334;2023-05-07T03:33:38;11.5;;;7.3;;
40012;SDS011;37387;42.672;23.334;2023-05-07T03:34:36;12.5;;;8.3;;
40012;SDS011;37387;42.672;23.334;2023-05-07T03:35:36;13.6;;;7.8;;
40012;SDS011;37387;42.672;23.334;2023-05-07T03:36:36;13.2;;;7.3;;
40012;SDS011;37387;42.672;23.334;2023-05-07T03:37:36;13.1;;;7.9;;
40012;SDS011;37387;42.672;23.334;2023-05-07T03:38:36;14.2;;;8.0;;
40012;SDS011;37387;42.672;23.334;2023-05-07T03:40:36;14.1;;;7.6;;
40012;SDS011;37387;42.672;23.334;2023-05-07T03:41:35;14.1;;;8.3;;
40012;SDS011;37387;42.672;23.334;2023-05-07T03:42:35;12.4;;;7.8;;
40012;SDS011;37387;42.672;23.334;2023-05-07T03:43:35;17.8;;;8.4;;
40012;SDS011;37387;42.672;23.334;2023-05-07T03:44:35;32.4;;;16.9;;
40012;SDS011;37387;42.672;23.334;2023-05-07T03:45:35;16.2;;;9.0;;
40012;SDS011;37387;42.672;23.334;2023-05-07T03:46:35;34.4;;;17.4;;
40012;SDS011;37387;42.672;23.334;2023-05-07T03:47:35;31.4;;;17.3;;
40012;SDS011;37387;42.672;23.334;2023-05-07T03:48:35;17.3;;;10.1;;
40012;SDS011;37387;42.672;23.334;2023-05-07T03:49:36;14.8;;;9.1;;
40012;SDS011;37387;42.672;23.334;2023-05-07T03:50:35;14.8;;;7.9;;
40012;SDS011;37387;42.672;23.334;2023-05-07T03:51:35;12.7;;;8.3;;
40012;SDS011;37387;42.672;23.334;2023-05-07T03:52:35;13.0;;;8.0;;
40012;SDS011;37387;42.672;23.334;2023-05-07T03:53:35;13.9;;;7.8;;
40012;SDS011;37387;42.672;23.334;2023-05-07T03:54:36;13.9;;;7.5;;
40012;SDS011;37387;42.672;23.334;2023-05-07T03:55:35;16.2;;;7.6;;
40012;SDS011;37387;42.672;23.334;2023-05-07T03:56:35;16.2;;;7.2;;
40012;SDS011;37387;42.672;23.334;2023-05-07T03:57:35;13.8;;;6.7;;
40012;SDS011;37387;42.672;23.334;2023-05-07T03:59:35;10.1;;;6.5;;
40012;SDS011;37387;42.672;23.334;2023-05-07T04:00:35;9.5;;;6.2;;
40012;SDS011;37387;42.672;23.334;2023-05-07T04:02:35;12.5;;;6.0;;
40012;SDS011;37387;42.672;23.334;2023-05-07T04:03:35;9.9;;;5.8;;
40012;SDS011;37387;42.672;23.334;2023-05-07T04:04:35;9.5;;;5.9;;
40012;SDS011;37387;42.672;23.334;2023-05-07T04:05:35;8.0;;;5.2;;
40012;SDS011;37387;42.672;23.334;2023-05-07T04:06:35;9.3;;;5.4;;
40012;SDS011;37387;42.672;23.334;2023-05-07T04:07:35;8.5;;;5.8;;
40012;SDS011;37387;42.672;23.334;2023-05-07T04:08:35;14.3;;;5.6;;
40012;SDS011;37387;42.672;23.334;2023-05-07T04:09:35;14.3;;;5.5;;
40012;SDS011;37387;42.672;23.334;2023-05-07T04:10:36;9.4;;;5.3;;
40012;SDS011;37387;42.672;23.334;2023-05-07T04:11:36;7.9;;;5.8;;
40012;SDS011;37387;42.672;23.334;2023-05-07T04:12:36;8.9;;;5.6;;
40012;SDS011;37387;42.672;23.334;2023-05-07T04:13:36;7.7;;;5.3;;
40012;SDS011;37387;42.672;23.334;2023-05-07T04:14:36;7.7;;;5.9;;
40012;SDS011;37387;42.672;23.334;2023-05-07T04:15:36;8.7;;;5.3;;
40012;SDS011;37387;42.672;23.334;2023-05-07T04:17:36;7.4;;;5.4;;
40012;SDS011;37387;42.672;23.334;2023-05-07T04:19:36;8.6;;;5.5;;
40012;SDS011;37387;42.672;23.334;2023-05-07T04:20:36;8.6;;;5.1;;
40012;SDS011;37387;42.672;23.334;2023-05-07T04:22:36;10.5;;;5.3;;
40012;SDS011;37387;42.672;23.334;2023-05-07T04:23:36;10.5;;;5.0;;
40012;SDS011;37387;42.672;23.334;2023-05-07T04:24:37;8.0;;;5.1;;
40012;SDS011;37387;42.672;23.334;2023-05-07T04:25:37;8.4;;;5.5;;
40012;SDS011;37387;42.672;23.334;2023-05-07T04:26:37;8.6;;;5.0;;
40012;SDS011;37387;42.672;23.334;2023-05-07T04:27:37;8.6;;;5.4;;
40012;SDS011;37387;42.672;23.334;2023-05-07T04:28:37;11.0;;;5.1;;
40012;SDS011;37387;42.672;23.334;2023-05-07T04:29:37;6.6;;;4.8;;
40012;SDS011;37387;42.672;23.334;2023-05-07T04:30:37;6.6;;;5.2;;
40012;SDS011;37387;42.672;23.334;2023-05-07T04:31:37;8.2;;;5.4;;
40012;SDS011;37387;42.672;23.334;2023-05-07T04:32:37;9.9;;;5.5;;
40012;SDS011;37387;42.672;23.334;2023-05-07T04:33:38;9.4;;;5.4;;
40012;SDS011;37387;42.672;23.334;2023-05-07T04:34:38;10.7;;;5.2;;
40012;SDS011;37387;42.672;23.334;2023-05-07T04:35:38;11.2;;;5.4;;
40012;SDS011;37387;42.672;23.334;2023-05-07T04:36:38;11.2;;;5.9;;
40012;SDS011;37387;42.672;23.334;2023-05-07T04:38:38;9.8;;;5.8;;
40012;SDS011;37387;42.672;23.334;2023-05-07T04:39:38;7.1;;;5.2;;
40012;SDS011;37387;42.672;23.334;2023-05-07T04:40:38;8.3;;;5.0;;
40012;SDS011;37387;42.672;23.334;2023-05-07T04:41:38;8.3;;;5.4;;
40012;SDS011;37387;42.672;23.334;2023-05-07T04:42:39;10.7;;;5.8;;
40012;SDS011;37387;42.672;23.334;2023-05-07T04:43:39;7.2;;;5.0;;
40012;SDS011;37387;42.672;23.334;2023-05-07T04:45:39;8.5;;;5.3;;
40012;SDS011;37387;42.672;23.334;2023-05-07T04:46:39;8.1;;;5.6;;
40012;SDS011;37387;42.672;23.334;2023-05-07T04:47:39;9.0;;;6.1;;
40012;SDS011;37387;42.672;23.334;2023-05-07T04:48:39;9.5;;;7.1;;
40012;SDS011;37387;42.672;23.334;2023-05-07T04:49:39;13.3;;;6.5;;
40012;SDS011;37387;42.672;23.334;2023-05-07T04:50:39;13.6;;;7.2;;
40012;SDS011;37387;42.672;23.334;2023-05-07T04:51:40;11.1;;;6.6;;
40012;SDS011;37387;42.672;23.334;2023-05-07T04:52:40;12.4;;;7.8;;
40012;SDS011;37387;42.672;23.334;2023-05-07T04:53:40;12.4;;;6.1;;
40012;SDS011;37387;42.672;23.334;2023-05-07T04:54:40;8.8;;;5.8;;
40012;SDS011;37387;42.672;23.334;2023-05-07T04:55:40;7.8;;;5.4;;
40012;SDS011;37387;42.672;23.334;2023-05-07T04:56:40;8.0;;;5.3;;
40012;SDS011;37387;42.672;23.334;2023-05-07T04:57:40;8.4;;;5.4;;
40012;SDS011;37387;42.672;23.334;2023-05-07T04:58:40;8.4;;;5.3;;
40012;SDS011;37387;42.672;23.334;2023-05-07T04:59:40;8.7;;;5.7;;
40012;SDS011;37387;42.672;23.334;2023-05-07T05:01:41;8.2;;;5.5;;
40012;SDS011;37387;42.672;23.334;2023-05-07T05:02:41;8.2;;;5.7;;
40012;SDS011;37387;42.672;23.334;2023-05-07T05:03:41;8.8;;;5.9;;
40012;SDS011;37387;42.672;23.334;2023-05-07T05:04:41;8.8;;;5.7;;
40012;SDS011;37387;42.672;23.334;2023-05-07T05:05:41;10.1;;;6.4;;
40012;SDS011;37387;42.672;23.334;2023-05-07T05:06:41;8.4;;;5.8;;
40012;SDS011;37387;42.672;23.334;2023-05-07T05:07:41;8.6;;;5.9;;
40012;SDS011;37387;42.672;23.334;2023-05-07T05:08:41;8.6;;;5.7;;
40012;SDS011;37387;42.672;23.334;2023-05-07T05:09:41;9.2;;;5.8;;
40012;SDS011;37387;42.672;23.334;2023-05-07T05:10:41;9.2;;;5.9;;
40012;SDS011;37387;42.672;23.334;2023-05-07T05:11:42;9.8;;;5.2;;
40012;SDS011;37387;42.672;23.334;2023-05-07T05:12:42;7.2;;;5.7;;
40012;SDS011;37387;42.672;23.334;2023-05-07T05:13:42;9.3;;;5.5;;
40012;SDS011;37387;42.672;23.334;2023-05-07T05:15:42;7.6;;;5.7;;
40012;SDS011;37387;42.672;23.334;2023-05-07T05:16:42;9.9;;;5.5;;
40012;SDS011;37387;42.672;23.334;2023-05-07T05:18:42;8.2;;;5.7;;
40012;SDS011;37387;42.672;23.334;2023-05-07T05:19:43;8.3;;;5.6;;
40012;SDS011;37387;42.672;23.334;2023-05-07T05:20:43;8.4;;;5.2;;
40012;SDS011;37387;42.672;23.334;2023-05-07T05:21:43;8.4;;;4.9;;
40012;SDS011;37387;42.672;23.334;2023-05-07T05:22:43;7.4;;;5.3;;
40012;SDS011;37387;42.672;23.334;2023-05-07T05:23:43;7.8;;;5.0;;
40012;SDS011;37387;42.672;23.334;2023-05-07T05:25:43;6.8;;;5.7;;
40012;SDS011;37387;42.672;23.334;2023-05-07T05:26:44;7.9;;;5.2;;
40012;SDS011;37387;42.672;23.334;2023-05-07T05:27:44;9.4;;;6.0;;
40012;SDS011;37387;42.672;23.334;2023-05-07T05:28:44;9.8;;;6.2;;
40012;SDS011;37387;42.672;23.334;2023-05-07T05:29:44;9.5;;;5.5;;
40012;SDS011;37387;42.672;23.334;2023-05-07T05:30:44;9.5;;;5.8;;
40012;SDS011;37387;42.672;23.334;2023-05-07T05:31:44;9.5;;;5.9;;
40012;SDS011;37387;42.672;23.334;2023-05-07T05:32:44;9.0;;;5.8;;
40012;SDS011;37387;42.672;23.334;2023-05-07T05:33:45;8.9;;;5.6;;
40012;SDS011;37387;42.672;23.334;2023-05-07T05:35:45;8.6;;;5.4;;
40012;SDS011;37387;42.672;23.334;2023-05-07T05:36:45;8.6;;;5.6;;
40012;SDS011;37387;42.672;23.334;2023-05-07T05:37:45;7.6;;;5.5;;
40012;SDS011;37387;42.672;23.334;2023-05-07T05:38:45;7.6;;;5.6;;
40012;SDS011;37387;42.672;23.334;2023-05-07T05:39:45;9.2;;;5.8;;
40012;SDS011;37387;42.672;23.334;2023-05-07T05:41:46;7.9;;;5.5;;
40012;SDS011;37387;42.672;23.334;2023-05-07T05:42:46;7.9;;;5.8;;
40012;SDS011;37387;42.672;23.334;2023-05-07T05:43:46;10.0;;;5.6;;
40012;SDS011;37387;42.672;23.334;2023-05-07T05:44:46;9.1;;;5.4;;
40012;SDS011;37387;42.672;23.334;2023-05-07T05:45:46;7.9;;;5.3;;
40012;SDS011;37387;42.672;23.334;2023-05-07T05:46:46;26.4;;;15.8;;
40012;SDS011;37387;42.672;23.334;2023-05-07T05:47:47;79.1;;;42.8;;
40012;SDS011;37387;42.672;23.334;2023-05-07T05:48:46;10.1;;;5.9;;
40012;SDS011;37387;42.672;23.334;2023-05-07T05:49:47;10.1;;;6.3;;
40012;SDS011;37387;42.672;23.334;2023-05-07T05:50:47;9.3;;;5.9;;
40012;SDS011;37387;42.672;23.334;2023-05-07T05:51:47;8.5;;;5.3;;
40012;SDS011;37387;42.672;23.334;2023-05-07T05:52:47;8.2;;;5.8;;
40012;SDS011;37387;42.672;23.334;2023-05-07T05:53:47;10.3;;;5.4;;
40012;SDS011;37387;42.672;23.334;2023-05-07T05:54:47;10.3;;;5.1;;
40012;SDS011;37387;42.672;23.334;2023-05-07T05:55:47;8.7;;;5.3;;
40012;SDS011;37387;42.672;23.334;2023-05-07T05:56:47;7.0;;;5.1;;
40012;SDS011;37387;42.672;23.334;2023-05-07T05:57:48;7.0;;;5.6;;
40012;SDS011;37387;42.672;23.334;2023-05-07T05:58:48;9.2;;;7.3;;
40012;SDS011;37387;42.672;23.334;2023-05-07T05:59:48;9.0;;;5.6;;
40012;SDS011;37387;42.672;23.334;2023-05-07T06:00:48;9.0;;;6.0;;
40012;SDS011;37387;42.672;23.334;2023-05-07T06:01:48;9.8;;;5.9;;
40012;SDS011;37387;42.672;23.334;2023-05-07T06:02:48;11.3;;;6.4;;
40012;SDS011;37387;42.672;23.334;2023-05-07T06:03:48;7.9;;;5.5;;
40012;SDS011;37387;42.672;23.334;2023-05-07T06:06:49;10.2;;;5.8;;
40012;SDS011;37387;42.672;23.334;2023-05-07T06:07:49;8.4;;;5.7;;
40012;SDS011;37387;42.672;23.334;2023-05-07T06:09:49;8.1;;;5.9;;
40012;SDS011;37387;42.672;23.334;2023-05-07T06:10:49;8.7;;;5.5;;
40012;SDS011;37387;42.672;23.334;2023-05-07T06:11:50;10.2;;;5.9;;
40012;SDS011;37387;42.672;23.334;2023-05-07T06:12:50;10.1;;;5.7;;
40012;SDS011;37387;42.672;23.334;2023-05-07T06:13:50;10.1;;;6.1;;
40012;SDS011;37387;42.672;23.334;2023-05-07T06:14:50;9.9;;;6.3;;
40012;SDS011;37387;42.672;23.334;2023-05-07T06:15:50;10.0;;;6.4;;
40012;SDS011;37387;42.672;23.334;2023-05-07T06:16:50;9.8;;;5.7;;
40012;SDS011;37387;42.672;23.334;2023-05-07T06:17:50;9.6;;;6.3;;
40012;SDS011;37387;42.672;23.334;2023-05-07T06:18:51;10.8;;;6.6;;
40012;SDS011;37387;42.672;23.334;2023-05-07T06:19:51;10.8;;;6.1;;
40012;SDS011;37387;42.672;23.334;2023-05-07T06:20:51;10.3;;;6.6;;
40012;SDS011;37387;42.672;23.334;2023-05-07T06:21:51;9.7;;;5.8;;
40012;SDS011;37387;42.672;23.334;2023-05-07T06:22:51;9.7;;;6.3;;
40012;SDS011;37387;42.672;23.334;2023-05-07T06:23:51;9.6;;;5.7;;
40012;SDS011;37387;42.672;23.334;2023-05-07T06:24:52;9.1;;;6.3;;
40012;SDS011;37387;42.672;23.334;2023-05-07T06:25:52;9.1;;;5.9;;
40012;SDS011;37387;42.672;23.334;2023-05-07T06:26:52;9.1;;;5.8;;
40012;SDS011;37387;42.672;23.334;2023-05-07T06:27:52;9.1;;;5.2;;
40012;SDS011;37387;42.672;23.334;2023-05-07T06:28:52;8.4;;;5.5;;
40012;SDS011;37387;42.672;23.334;2023-05-07T06:29:52;7.7;;;5.4;;
40012;SDS011;37387;42.672;23.334;2023-05-07T06:30:52;9.9;;;6.2;;
40012;SDS011;37387;42.672;23.334;2023-05-07T06:31:53;9.9;;;6.7;;
40012;SDS011;37387;42.672;23.334;2023-05-07T06:32:53;10.7;;;5.9;;